sensor_id;sensor_type;location;lat;lon;timestamp;temperature;humidity
78992;DHT22;72820;44.838;37.674;2024-02-23T00:00:53;5.85;68.27
78992;DHT22;72820;44.838;37.674;2024-02-23T00:01:54;5.89;68.12
78992;DHT22;72820;44.838;37.674;2024-02-23T00:02:56;5.89;67.91
78992;DHT22;72820;44.838;37.674;2024-02-23T00:03:58;5.90;68.15
78992;DHT22;72820;44.838;37.674;2024-02-23T00:05:00;5.89;68.26
78992;DHT22;72820;44.838;37.674;2024-02-23T00:06:01;5.94;68.20
78992;DHT22;72820;44.838;37.674;2024-02-23T00:07:03;5.94;67.97
78992;DHT22;72820;44.838;37.674;2024-02-23T00:08:06;5.97;67.93
78992;DHT22;72820;44.838;37.674;2024-02-23T00:09:07;5.97;67.66
78992;DHT22;72820;44.838;37.674;2024-02-23T00:10:09;5.99;67.57
78992;DHT22;72820;44.838;37.674;2024-02-23T00:11:10;5.97;67.59
78992;DHT22;72820;44.838;37.674;2024-02-23T00:12:12;5.97;67.67
78992;DHT22;72820;44.838;37.674;2024-02-23T00:13:14;5.96;67.82
78992;DHT22;72820;44.838;37.674;2024-02-23T00:14:16;5.93;67.95
78992;DHT22;72820;44.838;37.674;2024-02-23T00:15:19;5.90;68.01
78992;DHT22;72820;44.838;37.674;2024-02-23T00:16:21;5.92;68.10
78992;DHT22;72820;44.838;37.674;2024-02-23T00:17:22;5.93;67.92
78992;DHT22;72820;44.838;37.674;2024-02-23T00:18:24;5.93;68.01
78992;DHT22;72820;44.838;37.674;2024-02-23T00:19:25;5.92;68.17
78992;DHT22;72820;44.838;37.674;2024-02-23T00:20:27;5.92;68.11
78992;DHT22;72820;44.838;37.674;2024-02-23T00:21:28;5.94;68.07
78992;DHT22;72820;44.838;37.674;2024-02-23T00:22:29;5.94;68.20
78992;DHT22;72820;44.838;37.674;2024-02-23T00:23:31;5.96;68.15
78992;DHT22;72820;44.838;37.674;2024-02-23T00:24:32;5.92;68.25
78992;DHT22;72820;44.838;37.674;2024-02-23T00:25:33;5.90;68.15
78992;DHT22;72820;44.838;37.674;2024-02-23T00:26:35;5.94;68.19
78992;DHT22;72820;44.838;37.674;2024-02-23T00:27:36;5.94;68.23
78992;DHT22;72820;44.838;37.674;2024-02-23T00:28:37;5.92;68.17
78992;DHT22;72820;44.838;37.674;2024-02-23T00:29:39;5.94;68.06
78992;DHT22;72820;44.838;37.674;2024-02-23T00:30:41;5.94;68.01
78992;DHT22;72820;44.838;37.674;2024-02-23T00:31:43;5.94;67.86
78992;DHT22;72820;44.838;37.674;2024-02-23T00:32:46;5.94;67.82
78992;DHT22;72820;44.838;37.674;2024-02-23T00:33:47;5.97;67.54
78992;DHT22;72820;44.838;37.674;2024-02-23T00:34:48;5.97;67.70
78992;DHT22;72820;44.838;37.674;2024-02-23T00:35:50;6.00;67.44
78992;DHT22;72820;44.838;37.674;2024-02-23T00:36:51;6.02;67.51
78992;DHT22;72820;44.838;37.674;2024-02-23T00:37:53;6.02;67.46
78992;DHT22;72820;44.838;37.674;2024-02-23T00:38:54;6.02;67.48
78992;DHT22;72820;44.838;37.674;2024-02-23T00:39:55;6.00;67.57
78992;DHT22;72820;44.838;37.674;2024-02-23T00:40:57;5.99;67.81
78992;DHT22;72820;44.838;37.674;2024-02-23T00:41:58;5.96;67.84
78992;DHT22;72820;44.838;37.674;2024-02-23T00:42:59;5.94;68.16
78992;DHT22;72820;44.838;37.674;2024-02-23T00:44:04;5.89;68.17
78992;DHT22;72820;44.838;37.674;2024-02-23T00:45:06;5.83;68.36
78992;DHT22;72820;44.838;37.674;2024-02-23T00:46:08;5.80;68.64
78992;DHT22;72820;44.838;37.674;2024-02-23T00:47:09;5.82;68.51
78992;DHT22;72820;44.838;37.674;2024-02-23T00:48:11;5.83;68.49
78992;DHT22;72820;44.838;37.674;2024-02-23T00:49:14;5.80;68.49
78992;DHT22;72820;44.838;37.674;2024-02-23T00:50:15;5.85;68.53
78992;DHT22;72820;44.838;37.674;2024-02-23T00:51:16;5.87;68.31
78992;DHT22;72820;44.838;37.674;2024-02-23T00:52:18;5.86;68.32
78992;DHT22;72820;44.838;37.674;2024-02-23T00:53:19;5.87;68.37
78992;DHT22;72820;44.838;37.674;2024-02-23T00:54:21;5.87;68.21
78992;DHT22;72820;44.838;37.674;2024-02-23T00:55:23;5.87;68.33
78992;DHT22;72820;44.838;37.674;2024-02-23T00:56:26;5.82;68.54
78992;DHT22;72820;44.838;37.674;2024-02-23T00:57:28;5.83;68.58
78992;DHT22;72820;44.838;37.674;2024-02-23T00:58:31;5.80;68.73
78992;DHT22;72820;44.838;37.674;2024-02-23T00:59:32;5.80;68.67
78992;DHT22;72820;44.838;37.674;2024-02-23T01:00:33;5.80;68.83
78992;DHT22;72820;44.838;37.674;2024-02-23T01:01:35;5.75;68.89
78992;DHT22;72820;44.838;37.674;2024-02-23T01:02:37;5.76;68.95
78992;DHT22;72820;44.838;37.674;2024-02-23T01:03:38;5.76;68.96
78992;DHT22;72820;44.838;37.674;2024-02-23T01:04:40;5.75;68.82
78992;DHT22;72820;44.838;37.674;2024-02-23T01:05:41;5.75;68.91
78992;DHT22;72820;44.838;37.674;2024-02-23T01:06:43;5.75;68.93
78992;DHT22;72820;44.838;37.674;2024-02-23T01:07:44;5.75;69.04
78992;DHT22;72820;44.838;37.674;2024-02-23T01:08:46;5.72;69.10
78992;DHT22;72820;44.838;37.674;2024-02-23T01:09:48;5.68;69.27
78992;DHT22;72820;44.838;37.674;2024-02-23T01:10:49;5.62;69.28
78992;DHT22;72820;44.838;37.674;2024-02-23T01:11:51;5.58;69.50
78992;DHT22;72820;44.838;37.674;2024-02-23T01:12:52;5.58;69.59
78992;DHT22;72820;44.838;37.674;2024-02-23T01:13:53;5.62;69.56
78992;DHT22;72820;44.838;37.674;2024-02-23T01:14:55;5.58;69.61
78992;DHT22;72820;44.838;37.674;2024-02-23T01:15:56;5.56;69.76
78992;DHT22;72820;44.838;37.674;2024-02-23T01:16:57;5.54;69.78
78992;DHT22;72820;44.838;37.674;2024-02-23T01:17:59;5.55;69.75
78992;DHT22;72820;44.838;37.674;2024-02-23T01:19:00;5.58;69.74
78992;DHT22;72820;44.838;37.674;2024-02-23T01:20:04;5.60;69.64
78992;DHT22;72820;44.838;37.674;2024-02-23T01:21:06;5.55;69.58
78992;DHT22;72820;44.838;37.674;2024-02-23T01:22:08;5.52;69.71
78992;DHT22;72820;44.838;37.674;2024-02-23T01:23:09;5.49;69.86
78992;DHT22;72820;44.838;37.674;2024-02-23T01:24:10;5.51;69.92
78992;DHT22;72820;44.838;37.674;2024-02-23T01:25:12;5.49;69.91
78992;DHT22;72820;44.838;37.674;2024-02-23T01:26:13;5.48;69.92
78992;DHT22;72820;44.838;37.674;2024-02-23T01:27:15;5.51;69.90
78992;DHT22;72820;44.838;37.674;2024-02-23T01:28:16;5.51;70.01
78992;DHT22;72820;44.838;37.674;2024-02-23T01:29:18;5.52;69.96
78992;DHT22;72820;44.838;37.674;2024-02-23T01:30:19;5.52;69.99
78992;DHT22;72820;44.838;37.674;2024-02-23T01:31:20;5.52;70.00
78992;DHT22;72820;44.838;37.674;2024-02-23T01:32:22;5.55;70.05
78992;DHT22;72820;44.838;37.674;2024-02-23T01:33:24;5.56;70.08
78992;DHT22;72820;44.838;37.674;2024-02-23T01:34:25;5.56;69.99
78992;DHT22;72820;44.838;37.674;2024-02-23T01:35:26;5.59;69.93
78992;DHT22;72820;44.838;37.674;2024-02-23T01:36:28;5.54;69.94
78992;DHT22;72820;44.838;37.674;2024-02-23T01:37:29;5.55;70.05
78992;DHT22;72820;44.838;37.674;2024-02-23T01:38:31;5.51;70.24
78992;DHT22;72820;44.838;37.674;2024-02-23T01:39:33;5.49;70.34
78992;DHT22;72820;44.838;37.674;2024-02-23T01:40:35;5.54;70.40
78992;DHT22;72820;44.838;37.674;2024-02-23T01:41:36;5.51;70.58
78992;DHT22;72820;44.838;37.674;2024-02-23T01:42:38;5.54;70.59
78992;DHT22;72820;44.838;37.674;2024-02-23T01:43:39;5.55;70.35
78992;DHT22;72820;44.838;37.674;2024-02-23T01:44:41;5.59;70.33
78992;DHT22;72820;44.838;37.674;2024-02-23T01:45:42;5.60;70.19
78992;DHT22;72820;44.838;37.674;2024-02-23T01:46:44;5.66;70.05
78992;DHT22;72820;44.838;37.674;2024-02-23T01:47:45;5.66;69.85
78992;DHT22;72820;44.838;37.674;2024-02-23T01:48:46;5.60;70.01
78992;DHT22;72820;44.838;37.674;2024-02-23T01:49:48;5.62;70.13
78992;DHT22;72820;44.838;37.674;2024-02-23T01:50:49;5.60;70.08
78992;DHT22;72820;44.838;37.674;2024-02-23T01:51:51;5.59;70.34
78992;DHT22;72820;44.838;37.674;2024-02-23T01:52:53;5.58;70.55
78992;DHT22;72820;44.838;37.674;2024-02-23T01:53:55;5.56;70.60
78992;DHT22;72820;44.838;37.674;2024-02-23T01:54:57;5.56;70.85
78992;DHT22;72820;44.838;37.674;2024-02-23T01:56:00;5.52;70.76
78992;DHT22;72820;44.838;37.674;2024-02-23T01:57:01;5.54;70.73
78992;DHT22;72820;44.838;37.674;2024-02-23T01:58:04;5.55;70.70
78992;DHT22;72820;44.838;37.674;2024-02-23T01:59:06;5.56;70.86
78992;DHT22;72820;44.838;37.674;2024-02-23T02:00:10;5.55;70.94
78992;DHT22;72820;44.838;37.674;2024-02-23T02:01:18;5.59;70.86
78992;DHT22;72820;44.838;37.674;2024-02-23T02:02:20;5.60;70.91
78992;DHT22;72820;44.838;37.674;2024-02-23T02:03:21;5.63;70.78
78992;DHT22;72820;44.838;37.674;2024-02-23T02:04:23;5.63;70.72
78992;DHT22;72820;44.838;37.674;2024-02-23T02:05:24;5.69;70.65
78992;DHT22;72820;44.838;37.674;2024-02-23T02:06:26;5.70;70.56
78992;DHT22;72820;44.838;37.674;2024-02-23T02:07:28;5.68;70.67
78992;DHT22;72820;44.838;37.674;2024-02-23T02:08:29;5.72;70.91
78992;DHT22;72820;44.838;37.674;2024-02-23T02:09:31;5.70;70.89
78992;DHT22;72820;44.838;37.674;2024-02-23T02:10:32;5.69;70.91
78992;DHT22;72820;44.838;37.674;2024-02-23T02:11:34;5.65;70.93
78992;DHT22;72820;44.838;37.674;2024-02-23T02:12:35;5.66;70.73
78992;DHT22;72820;44.838;37.674;2024-02-23T02:13:37;5.63;71.02
78992;DHT22;72820;44.838;37.674;2024-02-23T02:14:38;5.62;71.02
78992;DHT22;72820;44.838;37.674;2024-02-23T02:15:40;5.65;71.05
78992;DHT22;72820;44.838;37.674;2024-02-23T02:16:41;5.69;71.38
78992;DHT22;72820;44.838;37.674;2024-02-23T02:17:44;5.68;71.41
78992;DHT22;72820;44.838;37.674;2024-02-23T02:18:46;5.68;71.02
78992;DHT22;72820;44.838;37.674;2024-02-23T02:19:48;5.70;71.07
78992;DHT22;72820;44.838;37.674;2024-02-23T02:20:56;5.69;71.16
78992;DHT22;72820;44.838;37.674;2024-02-23T02:22:00;5.65;71.21
78992;DHT22;72820;44.838;37.674;2024-02-23T02:23:02;5.70;71.22
78992;DHT22;72820;44.838;37.674;2024-02-23T02:24:04;5.69;71.29
78992;DHT22;72820;44.838;37.674;2024-02-23T02:25:06;5.63;71.40
78992;DHT22;72820;44.838;37.674;2024-02-23T02:26:08;5.62;71.64
78992;DHT22;72820;44.838;37.674;2024-02-23T02:27:09;5.65;71.57
78992;DHT22;72820;44.838;37.674;2024-02-23T02:28:11;5.66;71.53
78992;DHT22;72820;44.838;37.674;2024-02-23T02:29:13;5.70;71.46
78992;DHT22;72820;44.838;37.674;2024-02-23T02:30:15;5.72;71.41
78992;DHT22;72820;44.838;37.674;2024-02-23T02:31:16;5.73;71.52
78992;DHT22;72820;44.838;37.674;2024-02-23T02:32:18;5.76;71.62
78992;DHT22;72820;44.838;37.674;2024-02-23T02:33:19;5.76;71.67
78992;DHT22;72820;44.838;37.674;2024-02-23T02:34:21;5.80;71.55
78992;DHT22;72820;44.838;37.674;2024-02-23T02:35:22;5.87;71.46
78992;DHT22;72820;44.838;37.674;2024-02-23T02:36:24;5.90;71.35
78992;DHT22;72820;44.838;37.674;2024-02-23T02:37:25;5.96;71.35
78992;DHT22;72820;44.838;37.674;2024-02-23T02:38:27;5.96;71.24
78992;DHT22;72820;44.838;37.674;2024-02-23T02:39:28;6.02;71.02
78992;DHT22;72820;44.838;37.674;2024-02-23T02:40:30;6.07;70.98
78992;DHT22;72820;44.838;37.674;2024-02-23T02:41:32;6.10;70.91
78992;DHT22;72820;44.838;37.674;2024-02-23T02:42:34;6.13;70.90
78992;DHT22;72820;44.838;37.674;2024-02-23T02:43:35;6.13;70.67
78992;DHT22;72820;44.838;37.674;2024-02-23T02:44:37;6.18;70.53
78992;DHT22;72820;44.838;37.674;2024-02-23T02:45:38;6.21;70.48
78992;DHT22;72820;44.838;37.674;2024-02-23T02:46:40;6.21;70.37
78992;DHT22;72820;44.838;37.674;2024-02-23T02:47:42;6.27;70.23
78992;DHT22;72820;44.838;37.674;2024-02-23T02:48:43;6.25;70.08
78992;DHT22;72820;44.838;37.674;2024-02-23T02:49:44;6.27;70.02
78992;DHT22;72820;44.838;37.674;2024-02-23T02:50:46;6.28;69.90
78992;DHT22;72820;44.838;37.674;2024-02-23T02:51:47;6.27;69.84
78992;DHT22;72820;44.838;37.674;2024-02-23T02:52:48;6.24;69.84
78992;DHT22;72820;44.838;37.674;2024-02-23T02:53:50;6.27;69.76
78992;DHT22;72820;44.838;37.674;2024-02-23T02:54:51;6.25;69.72
78992;DHT22;72820;44.838;37.674;2024-02-23T02:55:52;6.30;69.67
78992;DHT22;72820;44.838;37.674;2024-02-23T02:56:54;6.30;69.70
78992;DHT22;72820;44.838;37.674;2024-02-23T02:57:55;6.27;69.83
78992;DHT22;72820;44.838;37.674;2024-02-23T02:58:57;6.25;70.03
78992;DHT22;72820;44.838;37.674;2024-02-23T02:59:58;6.25;70.00
78992;DHT22;72820;44.838;37.674;2024-02-23T03:00:59;6.25;70.05
78992;DHT22;72820;44.838;37.674;2024-02-23T03:02:01;6.22;70.08
78992;DHT22;72820;44.838;37.674;2024-02-23T03:03:03;6.20;70.31
78992;DHT22;72820;44.838;37.674;2024-02-23T03:04:04;6.21;70.36
78992;DHT22;72820;44.838;37.674;2024-02-23T03:05:05;6.14;70.62
78992;DHT22;72820;44.838;37.674;2024-02-23T03:06:07;6.10;70.74
78992;DHT22;72820;44.838;37.674;2024-02-23T03:07:08;6.09;70.90
78992;DHT22;72820;44.838;37.674;2024-02-23T03:08:09;6.07;71.10
78992;DHT22;72820;44.838;37.674;2024-02-23T03:09:11;6.04;71.17
78992;DHT22;72820;44.838;37.674;2024-02-23T03:10:12;6.11;71.07
78992;DHT22;72820;44.838;37.674;2024-02-23T03:11:14;6.14;70.96
78992;DHT22;72820;44.838;37.674;2024-02-23T03:12:15;6.14;70.95
78992;DHT22;72820;44.838;37.674;2024-02-23T03:13:16;6.16;70.95
78992;DHT22;72820;44.838;37.674;2024-02-23T03:14:18;6.17;70.91
78992;DHT22;72820;44.838;37.674;2024-02-23T03:15:21;6.16;70.87
78992;DHT22;72820;44.838;37.674;2024-02-23T03:16:23;6.21;70.61
78992;DHT22;72820;44.838;37.674;2024-02-23T03:17:27;6.21;70.50
78992;DHT22;72820;44.838;37.674;2024-02-23T03:18:28;6.25;70.41
78992;DHT22;72820;44.838;37.674;2024-02-23T03:19:29;6.22;70.38
78992;DHT22;72820;44.838;37.674;2024-02-23T03:20:31;6.22;70.05
78992;DHT22;72820;44.838;37.674;2024-02-23T03:21:32;6.22;70.04
78992;DHT22;72820;44.838;37.674;2024-02-23T03:22:34;6.22;70.02
78992;DHT22;72820;44.838;37.674;2024-02-23T03:23:36;6.25;70.08
78992;DHT22;72820;44.838;37.674;2024-02-23T03:24:37;6.21;70.12
78992;DHT22;72820;44.838;37.674;2024-02-23T03:25:39;6.22;70.08
78992;DHT22;72820;44.838;37.674;2024-02-23T03:26:40;6.21;70.14
78992;DHT22;72820;44.838;37.674;2024-02-23T03:27:42;6.20;70.02
78992;DHT22;72820;44.838;37.674;2024-02-23T03:28:43;6.14;70.06
78992;DHT22;72820;44.838;37.674;2024-02-23T03:29:44;6.03;70.32
78992;DHT22;72820;44.838;37.674;2024-02-23T03:30:46;5.93;70.63
78992;DHT22;72820;44.838;37.674;2024-02-23T03:31:47;5.89;70.88
78992;DHT22;72820;44.838;37.674;2024-02-23T03:32:48;5.85;71.08
78992;DHT22;72820;44.838;37.674;2024-02-23T03:33:50;5.82;71.17
78992;DHT22;72820;44.838;37.674;2024-02-23T03:34:51;5.82;71.18
78992;DHT22;72820;44.838;37.674;2024-02-23T03:35:52;5.83;71.15
78992;DHT22;72820;44.838;37.674;2024-02-23T03:36:54;5.80;70.99
78992;DHT22;72820;44.838;37.674;2024-02-23T03:37:55;5.83;71.03
78992;DHT22;72820;44.838;37.674;2024-02-23T03:38:56;5.85;70.73
78992;DHT22;72820;44.838;37.674;2024-02-23T03:39:58;5.77;70.89
78992;DHT22;72820;44.838;37.674;2024-02-23T03:41:00;5.79;71.01
78992;DHT22;72820;44.838;37.674;2024-02-23T03:42:04;5.76;71.08
78992;DHT22;72820;44.838;37.674;2024-02-23T03:43:05;5.75;71.23
78992;DHT22;72820;44.838;37.674;2024-02-23T03:44:07;5.75;71.24
78992;DHT22;72820;44.838;37.674;2024-02-23T03:45:09;5.73;71.29
78992;DHT22;72820;44.838;37.674;2024-02-23T03:46:10;5.70;71.37
78992;DHT22;72820;44.838;37.674;2024-02-23T03:47:12;5.75;71.47
78992;DHT22;72820;44.838;37.674;2024-02-23T03:48:14;5.73;71.51
78992;DHT22;72820;44.838;37.674;2024-02-23T03:49:16;5.70;71.65
78992;DHT22;72820;44.838;37.674;2024-02-23T03:50:17;5.69;71.88
78992;DHT22;72820;44.838;37.674;2024-02-23T03:51:18;5.70;72.18
78992;DHT22;72820;44.838;37.674;2024-02-23T03:52:20;5.70;72.20
78992;DHT22;72820;44.838;37.674;2024-02-23T03:53:21;5.73;72.17
78992;DHT22;72820;44.838;37.674;2024-02-23T03:54:23;5.75;72.01
78992;DHT22;72820;44.838;37.674;2024-02-23T03:55:24;5.77;71.98
78992;DHT22;72820;44.838;37.674;2024-02-23T03:56:26;5.77;71.84
78992;DHT22;72820;44.838;37.674;2024-02-23T03:57:27;5.80;71.78
78992;DHT22;72820;44.838;37.674;2024-02-23T03:58:28;5.85;71.70
78992;DHT22;72820;44.838;37.674;2024-02-23T03:59:30;5.82;71.47
78992;DHT22;72820;44.838;37.674;2024-02-23T04:00:31;5.77;71.60
78992;DHT22;72820;44.838;37.674;2024-02-23T04:01:33;5.82;71.83
78992;DHT22;72820;44.838;37.674;2024-02-23T04:02:34;5.83;71.86
78992;DHT22;72820;44.838;37.674;2024-02-23T04:03:36;5.80;71.88
78992;DHT22;72820;44.838;37.674;2024-02-23T04:04:37;5.76;71.77
78992;DHT22;72820;44.838;37.674;2024-02-23T04:05:38;5.76;71.82
78992;DHT22;72820;44.838;37.674;2024-02-23T04:06:40;5.77;71.79
78992;DHT22;72820;44.838;37.674;2024-02-23T04:07:41;5.75;71.95
78992;DHT22;72820;44.838;37.674;2024-02-23T04:08:43;5.70;72.17
78992;DHT22;72820;44.838;37.674;2024-02-23T04:09:44;5.66;72.32
78992;DHT22;72820;44.838;37.674;2024-02-23T04:10:46;5.69;72.40
78992;DHT22;72820;44.838;37.674;2024-02-23T04:11:47;5.70;72.42
78992;DHT22;72820;44.838;37.674;2024-02-23T04:12:49;5.73;72.50
78992;DHT22;72820;44.838;37.674;2024-02-23T04:13:51;5.75;72.47
78992;DHT22;72820;44.838;37.674;2024-02-23T04:14:52;5.73;72.45
78992;DHT22;72820;44.838;37.674;2024-02-23T04:15:53;5.75;72.41
78992;DHT22;72820;44.838;37.674;2024-02-23T04:16:55;5.70;72.46
78992;DHT22;72820;44.838;37.674;2024-02-23T04:17:56;5.68;72.68
78992;DHT22;72820;44.838;37.674;2024-02-23T04:18:58;5.63;72.65
78992;DHT22;72820;44.838;37.674;2024-02-23T04:20:05;5.62;72.80
78992;DHT22;72820;44.838;37.674;2024-02-23T04:21:07;5.59;72.82
78992;DHT22;72820;44.838;37.674;2024-02-23T04:22:09;5.58;72.95
78992;DHT22;72820;44.838;37.674;2024-02-23T04:23:13;5.56;73.03
78992;DHT22;72820;44.838;37.674;2024-02-23T04:24:15;5.52;72.98
78992;DHT22;72820;44.838;37.674;2024-02-23T04:25:17;5.44;73.07
78992;DHT22;72820;44.838;37.674;2024-02-23T04:26:18;5.44;73.24
78992;DHT22;72820;44.838;37.674;2024-02-23T04:27:19;5.42;73.45
78992;DHT22;72820;44.838;37.674;2024-02-23T04:28:21;5.47;73.20
78992;DHT22;72820;44.838;37.674;2024-02-23T04:29:22;5.44;73.09
78992;DHT22;72820;44.838;37.674;2024-02-23T04:30:23;5.45;73.10
78992;DHT22;72820;44.838;37.674;2024-02-23T04:31:25;5.45;73.08
78992;DHT22;72820;44.838;37.674;2024-02-23T04:32:26;5.42;73.05
78992;DHT22;72820;44.838;37.674;2024-02-23T04:33:27;5.42;72.91
78992;DHT22;72820;44.838;37.674;2024-02-23T04:34:29;5.44;72.72
78992;DHT22;72820;44.838;37.674;2024-02-23T04:35:30;5.38;72.66
78992;DHT22;72820;44.838;37.674;2024-02-23T04:36:32;5.41;72.49
78992;DHT22;72820;44.838;37.674;2024-02-23T04:37:34;5.42;72.45
78992;DHT22;72820;44.838;37.674;2024-02-23T04:38:35;5.39;72.40
78992;DHT22;72820;44.838;37.674;2024-02-23T04:39:37;5.41;72.35
78992;DHT22;72820;44.838;37.674;2024-02-23T04:40:39;5.38;72.61
78992;DHT22;72820;44.838;37.674;2024-02-23T04:41:40;5.35;72.93
78992;DHT22;72820;44.838;37.674;2024-02-23T04:42:43;5.32;72.94
78992;DHT22;72820;44.838;37.674;2024-02-23T04:43:46;5.35;72.81
78992;DHT22;72820;44.838;37.674;2024-02-23T04:44:47;5.35;72.61
78992;DHT22;72820;44.838;37.674;2024-02-23T04:45:51;5.35;72.59
78992;DHT22;72820;44.838;37.674;2024-02-23T04:46:52;5.34;72.45
78992;DHT22;72820;44.838;37.674;2024-02-23T04:47:54;5.30;72.37
78992;DHT22;72820;44.838;37.674;2024-02-23T04:48:55;5.24;72.07
78992;DHT22;72820;44.838;37.674;2024-02-23T04:49:57;5.20;72.32
78992;DHT22;72820;44.838;37.674;2024-02-23T04:50:59;5.19;72.68
78992;DHT22;72820;44.838;37.674;2024-02-23T04:52:00;5.19;72.68
78992;DHT22;72820;44.838;37.674;2024-02-23T04:53:02;5.16;73.03
78992;DHT22;72820;44.838;37.674;2024-02-23T04:54:03;5.14;73.31
78992;DHT22;72820;44.838;37.674;2024-02-23T04:55:05;5.11;73.39
78992;DHT22;72820;44.838;37.674;2024-02-23T04:56:07;5.07;73.43
78992;DHT22;72820;44.838;37.674;2024-02-23T04:57:08;5.04;73.68
78992;DHT22;72820;44.838;37.674;2024-02-23T04:58:09;5.09;73.91
78992;DHT22;72820;44.838;37.674;2024-02-23T04:59:13;5.07;74.01
78992;DHT22;72820;44.838;37.674;2024-02-23T05:00:14;5.10;74.39
78992;DHT22;72820;44.838;37.674;2024-02-23T05:01:16;5.13;74.12
78992;DHT22;72820;44.838;37.674;2024-02-23T05:02:17;5.16;73.77
78992;DHT22;72820;44.838;37.674;2024-02-23T05:03:18;5.17;73.67
78992;DHT22;72820;44.838;37.674;2024-02-23T05:04:20;5.14;73.46
78992;DHT22;72820;44.838;37.674;2024-02-23T05:05:21;5.17;73.13
78992;DHT22;72820;44.838;37.674;2024-02-23T05:06:23;5.17;73.14
78992;DHT22;72820;44.838;37.674;2024-02-23T05:07:24;5.14;73.26
78992;DHT22;72820;44.838;37.674;2024-02-23T05:08:26;5.13;73.34
78992;DHT22;72820;44.838;37.674;2024-02-23T05:09:28;5.11;73.54
78992;DHT22;72820;44.838;37.674;2024-02-23T05:10:30;5.14;73.62
78992;DHT22;72820;44.838;37.674;2024-02-23T05:11:31;5.17;73.70
78992;DHT22;72820;44.838;37.674;2024-02-23T05:12:32;5.20;73.89
78992;DHT22;72820;44.838;37.674;2024-02-23T05:13:34;5.24;73.96
78992;DHT22;72820;44.838;37.674;2024-02-23T05:14:35;5.24;74.34
78992;DHT22;72820;44.838;37.674;2024-02-23T05:15:37;5.26;74.49
78992;DHT22;72820;44.838;37.674;2024-02-23T05:16:38;5.28;74.66
78992;DHT22;72820;44.838;37.674;2024-02-23T05:17:39;5.30;74.87
78992;DHT22;72820;44.838;37.674;2024-02-23T05:18:40;5.34;74.83
78992;DHT22;72820;44.838;37.674;2024-02-23T05:19:43;5.38;74.97
78992;DHT22;72820;44.838;37.674;2024-02-23T05:20:44;5.44;75.19
78992;DHT22;72820;44.838;37.674;2024-02-23T05:21:45;5.47;75.35
78992;DHT22;72820;44.838;37.674;2024-02-23T05:22:47;5.49;75.10
78992;DHT22;72820;44.838;37.674;2024-02-23T05:23:49;5.54;74.76
78992;DHT22;72820;44.838;37.674;2024-02-23T05:24:50;5.55;74.61
78992;DHT22;72820;44.838;37.674;2024-02-23T05:25:52;5.51;74.23
78992;DHT22;72820;44.838;37.674;2024-02-23T05:26:53;5.48;74.30
78992;DHT22;72820;44.838;37.674;2024-02-23T05:27:54;5.49;74.30
78992;DHT22;72820;44.838;37.674;2024-02-23T05:28:56;5.52;74.31
78992;DHT22;72820;44.838;37.674;2024-02-23T05:29:57;5.60;74.33
78992;DHT22;72820;44.838;37.674;2024-02-23T05:30:59;5.66;74.15
78992;DHT22;72820;44.838;37.674;2024-02-23T05:32:00;5.69;73.96
78992;DHT22;72820;44.838;37.674;2024-02-23T05:33:01;5.73;73.81
78992;DHT22;72820;44.838;37.674;2024-02-23T05:34:05;5.79;73.89
78992;DHT22;72820;44.838;37.674;2024-02-23T05:35:07;5.83;73.92
78992;DHT22;72820;44.838;37.674;2024-02-23T05:36:09;5.87;73.78
78992;DHT22;72820;44.838;37.674;2024-02-23T05:37:10;5.92;73.74
78992;DHT22;72820;44.838;37.674;2024-02-23T05:38:11;5.93;73.76
78992;DHT22;72820;44.838;37.674;2024-02-23T05:39:13;5.99;73.86
78992;DHT22;72820;44.838;37.674;2024-02-23T05:40:16;6.06;73.97
78992;DHT22;72820;44.838;37.674;2024-02-23T05:41:17;6.09;73.95
78992;DHT22;72820;44.838;37.674;2024-02-23T05:42:19;6.14;73.88
78992;DHT22;72820;44.838;37.674;2024-02-23T05:43:20;6.21;74.02
78992;DHT22;72820;44.838;37.674;2024-02-23T05:44:22;6.25;74.08
78992;DHT22;72820;44.838;37.674;2024-02-23T05:45:24;6.31;74.23
78992;DHT22;72820;44.838;37.674;2024-02-23T05:46:25;6.34;74.14
78992;DHT22;72820;44.838;37.674;2024-02-23T05:47:26;6.41;74.07
78992;DHT22;72820;44.838;37.674;2024-02-23T05:48:28;6.48;73.93
78992;DHT22;72820;44.838;37.674;2024-02-23T05:49:29;6.52;73.70
78992;DHT22;72820;44.838;37.674;2024-02-23T05:50:30;6.59;73.66
78992;DHT22;72820;44.838;37.674;2024-02-23T05:51:33;6.62;73.57
78992;DHT22;72820;44.838;37.674;2024-02-23T05:52:35;6.66;73.51
78992;DHT22;72820;44.838;37.674;2024-02-23T05:53:37;6.69;73.69
78992;DHT22;72820;44.838;37.674;2024-02-23T05:54:38;6.72;73.36
78992;DHT22;72820;44.838;37.674;2024-02-23T05:55:39;6.72;73.26
78992;DHT22;72820;44.838;37.674;2024-02-23T05:56:41;6.79;73.03
78992;DHT22;72820;44.838;37.674;2024-02-23T05:57:42;6.85;73.01
78992;DHT22;72820;44.838;37.674;2024-02-23T05:58:45;6.89;72.84
78992;DHT22;72820;44.838;37.674;2024-02-23T05:59:46;6.87;72.91
78992;DHT22;72820;44.838;37.674;2024-02-23T06:00:47;6.77;73.11
78992;DHT22;72820;44.838;37.674;2024-02-23T06:01:49;6.72;73.30
78992;DHT22;72820;44.838;37.674;2024-02-23T06:02:50;6.65;73.58
78992;DHT22;72820;44.838;37.674;2024-02-23T06:03:52;6.64;73.96
78992;DHT22;72820;44.838;37.674;2024-02-23T06:04:56;6.65;74.15
78992;DHT22;72820;44.838;37.674;2024-02-23T06:05:57;6.64;74.22
78992;DHT22;72820;44.838;37.674;2024-02-23T06:06:58;6.66;74.34
78992;DHT22;72820;44.838;37.674;2024-02-23T06:08:00;6.69;74.52
78992;DHT22;72820;44.838;37.674;2024-02-23T06:09:02;6.76;74.58
78992;DHT22;72820;44.838;37.674;2024-02-23T06:10:05;6.80;74.55
78992;DHT22;72820;44.838;37.674;2024-02-23T06:11:09;6.90;74.56
78992;DHT22;72820;44.838;37.674;2024-02-23T06:12:10;6.93;74.68
78992;DHT22;72820;44.838;37.674;2024-02-23T06:13:12;6.99;74.63
78992;DHT22;72820;44.838;37.674;2024-02-23T06:14:13;7.03;74.52
78992;DHT22;72820;44.838;37.674;2024-02-23T06:15:15;7.14;74.16
78992;DHT22;72820;44.838;37.674;2024-02-23T06:16:17;7.18;73.84
78992;DHT22;72820;44.838;37.674;2024-02-23T06:17:19;7.25;73.58
78992;DHT22;72820;44.838;37.674;2024-02-23T06:18:20;7.32;73.37
78992;DHT22;72820;44.838;37.674;2024-02-23T06:19:21;7.42;73.08
78992;DHT22;72820;44.838;37.674;2024-02-23T06:20:23;7.49;73.02
78992;DHT22;72820;44.838;37.674;2024-02-23T06:21:24;7.54;72.87
78992;DHT22;72820;44.838;37.674;2024-02-23T06:22:25;7.62;72.95
78992;DHT22;72820;44.838;37.674;2024-02-23T06:23:27;7.63;72.94
78992;DHT22;72820;44.838;37.674;2024-02-23T06:24:28;7.72;73.11
78992;DHT22;72820;44.838;37.674;2024-02-23T06:25:29;7.73;73.20
78992;DHT22;72820;44.838;37.674;2024-02-23T06:26:32;7.79;73.14
78992;DHT22;72820;44.838;37.674;2024-02-23T06:27:33;7.89;73.29
78992;DHT22;72820;44.838;37.674;2024-02-23T06:28:35;7.94;72.76
78992;DHT22;72820;44.838;37.674;2024-02-23T06:29:38;7.89;72.74